Atka, AK

10:02 PM HADT on July 30, 2014 (GMT -0900)
Atka (PAAK) Elev 56 ft | 52.22 °N, 174.21 °W | Change Station

Current weather conditions updated 6 minutes ago

Overcast
Overcast
57 °F
Feels Like 57 °F
N
8
Wind Variable Wind from SE

Tomorrow is forecast to be Much Cooler than today. Chance of showers.

Today
High -- | Low -- °F
--% Chance of Precip.
Yesterday
High -- | Low -- °F
Precip. -- in
6:56 AM 10:30 PM
Waxing Crescent, 16% visible
Pressure 30.14 in
Visibility 4.0 miles
Clouds Overcast 500 ft
Dew Point 55 °F
Humidity 94%
Rainfall 0.00 in
Snow Depth Not available.
UV 0 out of 12
Pollen Not available.
Air Quality Not available.
Flu Activity Not available.
METAR PAAK 310656Z 14007KT 4SM OVC005 14/13 A3014 RMK AO1

More Conditions Fewer Conditions

Pressure 30.14 in
Visibility 4.0 miles
Clouds Overcast 500 ft
Dew Point 55 °F
Humidity 94%
Rainfall 0.00 in
Snow Depth Not available.
UV 0 out of 12
Pollen Not available.
Air Quality Not available.
Flu Activity Not available.
METAR PAAK 310656Z 14007KT 4SM OVC005 14/13 A3014 RMK AO1

More Conditions Fewer Conditions

10-Day Weather Forecast

Almanac

Astronomy

Jul. 30, 2014 Rise Set
Actual Time 6:56 AM HADT 10:30 PM HADT
Civil Twilight 6:14 AM HADT 11:12 PM HADT
Nautical Twilight 5:17 AM HADT 12:09 AM HADT
Astronomical Twilight 3:49 AM HADT 1:33 AM HADT
Moon 11:16 AM HADT (7/30) 11:41 PM HADT (7/30)
Length of Visible Light 16h 58m
Length of Day
15h 34m
Tomorrow will be 3m 11s shorter.
Waxing Crescent, 16% of the Moon is Illuminated
Jul 31
Waxing Crescent
Aug 3
First Quarter
Aug 10
Full
Aug 17
Last Quarter
Aug 25
New

Community

WunderPhotos

Upload Photos

1,739,251 photos uploaded!

Nearby

Snow Depth

Station Depth Elevation
Rocky Point 2 in 500 ft
Port Graham 0 in 300 ft
Mcneil Canyon 1 in 1320 ft
MF Bradley River 391 in 2300 ft
Nuka Glacier 12 in 1250 ft

Earthquake Activity

City Distance Mag. Time & Date
No recent earthquake activity has been reported nearby.
Minimum magnitude displayed is 2.5.

Coastal Water Temperatures

Place Temperature
No Stations Reporting

Nearby Weather Stations

There are no personal weather stations in this area.